Time;durP1;ratioP1;P1;durP2;ratioP2;P2;SDS_P1;SDS_P2;PMS_P1;PMS_P2;Temp;Humidity;BMP_temperature;BMP_pressure;BME280_temperature;BME280_humidity;BME280_pressure;Samples;Min_cycle;Max_cycle;Signal;HPM_P1;HPM_P2
2021/03/19 00:00:21;;;;;;;56.60;25.13;;;;;;;0.18;77.26;100920.48;1764555;78;27422;-59
2021/03/19 00:02:52;;;;;;;60.83;25.97;;;;;;;0.18;77.23;100928.39;1756952;79;25954;-58
2021/03/19 00:05:24;;;;;;;55.25;23.05;;;;;;;0.20;77.36;100924.00;1741945;80;26000;-58
2021/03/19 00:07:54;;;;;;;;;;;;;;;0.25;77.39;100927.97;1754764;79;25860;-59
2021/03/19 00:10:26;;;;;;;50.30;24.18;;;;;;;0.25;77.42;100931.92;1771193;78;25800;-59
2021/03/19 00:12:57;;;;;;;57.93;24.07;;;;;;;0.24;77.34;100931.05;1748944;79;28989;-59
2021/03/19 00:15:27;;;;;;;41.75;19.20;;;;;;;0.24;77.38;100935.00;1754311;79;25829;-58
2021/03/19 00:17:57;;;;;;;53.13;21.57;;;;;;;0.24;77.31;100935.44;1772313;79;25833;-58
2021/03/19 00:20:25;;;;;;;44.18;20.32;;;;;;;0.20;77.36;100931.91;1750824;80;25802;-59
2021/03/19 00:22:54;;;;;;;42.25;19.17;;;;;;;0.21;77.48;100932.36;1748216;80;25969;-58
2021/03/19 00:25:22;;;;;;;46.65;20.37;;;;;;;0.24;77.49;100932.36;1737232;80;27992;-59
2021/03/19 00:27:50;;;;;;;49.08;20.55;;;;;;;0.25;77.50;100936.77;1728917;79;25977;-59
2021/03/19 00:30:18;;;;;;;48.25;22.58;;;;;;;0.28;77.53;100931.94;1729343;81;25982;-59
2021/03/19 00:32:46;;;;;;;41.48;19.10;;;;;;;0.29;77.52;100934.58;1732798;81;26130;-59
2021/03/19 00:35:14;;;;;;;50.63;21.12;;;;;;;0.27;77.47;100932.37;1727607;79;25850;-59
2021/03/19 00:37:42;;;;;;;44.77;21.62;;;;;;;0.27;77.58;100933.69;1733319;81;27771;-59
2021/03/19 00:40:14;;;;;;;51.60;22.77;;;;;;;0.29;77.58;100933.27;1728275;79;25936;-58
2021/03/19 00:42:43;;;;;;;60.83;23.83;;;;;;;0.31;77.61;100929.31;1732977;81;25905;-58
2021/03/19 00:45:15;;;;;;;58.50;23.98;;;;;;;0.33;77.69;100935.03;1725893;79;26007;-58
2021/03/19 00:47:43;;;;;;;50.60;21.95;;;;;;;0.35;77.63;100935.03;1724838;79;25864;-58
2021/03/19 00:50:16;;;;;;;55.48;22.93;;;;;;;0.32;77.50;100935.03;1728279;81;27884;-58
2021/03/19 00:52:44;;;;;;;50.73;21.75;;;;;;;0.28;77.56;100938.53;1723777;79;25916;-64
2021/03/19 00:55:13;;;;;;;60.73;22.37;;;;;;;0.23;77.46;100938.52;1731794;79;25906;-64
2021/03/19 00:57:41;;;;;;;56.63;23.40;;;;;;;0.12;77.45;100938.91;1725990;81;25964;-64
2021/03/19 01:00:12;;;;;;;56.05;24.25;;;;;;;0.06;77.57;100931.42;1723870;81;25917;-64
2021/03/19 01:02:40;;;;;;;49.10;22.20;;;;;;;0.05;77.71;100933.61;1737270;79;27937;-64
2021/03/19 01:05:12;;;;;;;52.43;22.30;;;;;;;0.07;77.80;100927.47;1733628;81;25926;-64
2021/03/19 01:07:40;;;;;;;51.65;21.82;;;;;;;0.05;77.72;100927.91;1742965;79;26550;-64
2021/03/19 01:10:12;;;;;;;50.33;23.45;;;;;;;0.04;77.72;100919.99;1724263;81;25758;-64
2021/03/19 01:12:42;;;;;;;52.85;23.77;;;;;;;0.05;77.83;100920.44;1732383;81;26601;-64
2021/03/19 01:15:12;;;;;;;49.50;23.45;;;;;;;0.08;77.94;100920.45;1727506;81;27353;-64
2021/03/19 01:17:40;;;;;;;48.85;22.67;;;;;;;0.10;77.92;100917.38;1732506;79;25947;-64
2021/03/19 01:20:12;;;;;;;58.08;23.05;;;;;;;0.10;77.86;100915.63;1730739;81;25969;-64
2021/03/19 01:22:40;;;;;;;55.50;25.20;;;;;;;0.10;77.88;100914.74;1727771;79;26588;-64
2021/03/19 01:25:14;;;;;;;58.90;25.65;;;;;;;0.09;77.91;100915.19;1723118;81;25854;-64
2021/03/19 01:27:44;;;;;;;52.15;25.25;;;;;;;0.10;77.96;100911.67;1725096;79;27483;-64
2021/03/19 01:30:17;;;;;;;57.17;26.02;;;;;;;0.12;78.02;100908.60;1707817;81;26451;-65
2021/03/19 01:32:47;;;;;;;53.75;23.60;;;;;;;0.14;78.01;100910.80;1712884;81;26027;-64
2021/03/19 01:35:16;;;;;;;47.53;22.52;;;;;;;0.16;77.98;100913.01;1722660;81;26008;-64
2021/03/19 01:37:44;;;;;;;56.45;23.47;;;;;;;0.16;78.03;100911.69;1713076;79;26780;-64
2021/03/19 01:40:15;;;;;;;51.48;23.42;;;;;;;0.18;78.09;100908.63;1722980;81;27652;-64
2021/03/19 01:42:48;;;;;;;59.23;23.87;;;;;;;0.21;78.12;100911.70;1722358;81;25956;-64
2021/03/19 01:46:12;;;;;;;55.03;23.22;;;;;;;0.24;78.16;100907.77;1728105;81;26399;-64
2021/03/19 01:49:38;;;;;;;57.00;23.10;;;;;;;0.27;78.15;100913.92;1687241;82;26039;-64
2021/03/19 01:53:03;;;;;;;50.05;22.13;;;;;;;0.28;78.06;100913.48;1675578;83;28850;-64
2021/03/19 01:56:28;;;;;;;53.28;21.42;;;;;;;0.24;78.09;100909.95;1713872;81;27870;-64
2021/03/19 01:59:52;;;;;;;47.78;20.30;;;;;;;0.28;78.21;100913.05;1706650;81;25832;-64
2021/03/19 02:03:17;;;;;;;48.45;20.50;;;;;;;0.32;78.20;100916.13;1706480;81;26069;-64
2021/03/19 02:06:41;;;;;;;45.10;19.23;;;;;;;0.35;78.21;100913.06;1723526;79;26275;-65
2021/03/19 02:10:05;;;;;;;41.75;17.02;;;;;;;0.35;78.12;100915.70;1723640;81;25968;-63
2021/03/19 02:13:29;;;;;;;39.08;17.75;;;;;;;0.31;78.10;100911.73;1725718;81;27650;-63
2021/03/19 02:16:53;;;;;;;38.20;18.17;;;;;;;0.28;78.07;100909.53;1716389;81;26237;-64
2021/03/19 02:20:17;;;;;;;45.20;17.77;;;;;;;0.27;78.08;100904.69;1723653;81;26387;-64
2021/03/19 02:23:41;;;;;;;38.35;16.37;;;;;;;0.28;78.14;100912.16;1721151;81;26637;-64
2021/03/19 02:26:54;;;;;;;35.03;16.27;;;;;;;0.26;78.06;100906.89;1723295;81;25937;-64
2021/03/19 02:30:18;;;;;;;32.63;17.20;;;;;;;0.27;78.11;100915.68;1714419;81;27921;-64
2021/03/19 02:32:46;;;;;;;35.80;16.95;;;;;;;0.26;78.09;100909.52;1725557;81;25962;-63
2021/03/19 02:35:19;;;;;;;41.28;19.07;;;;;;;0.23;78.05;100914.79;1713486;81;25971;-63
2021/03/19 02:37:47;;;;;;;41.37;19.02;;;;;;;0.26;78.14;100910.84;1710565;81;26203;-63
2021/03/19 02:40:19;;;;;;;38.75;18.40;;;;;;;0.31;78.14;100910.86;1735752;81;26037;-63
2021/03/19 02:42:48;;;;;;;41.73;17.17;;;;;;;0.32;78.14;100909.98;1734001;81;27505;-63
2021/03/19 02:45:21;;;;;;;35.40;17.32;;;;;;;0.35;78.13;100912.63;1730878;81;25875;-63
2021/03/19 02:47:49;;;;;;;36.60;17.10;;;;;;;0.37;78.12;100916.14;1728460;81;25868;-63
2021/03/19 02:50:17;;;;;;;38.58;17.20;;;;;;;0.37;78.06;100917.90;1730392;81;26443;-63
2021/03/19 02:52:45;;;;;;;43.38;19.48;;;;;;;0.38;78.15;100916.59;1712568;81;25833;-63
2021/03/19 02:55:17;;;;;;;38.08;17.77;;;;;;;0.44;78.16;100913.96;1718985;81;27846;-63
2021/03/19 02:57:45;;;;;;;39.83;17.62;;;;;;;0.45;78.10;100921.00;1730089;81;26606;-63
2021/03/19 03:00:19;;;;;;;39.08;17.95;;;;;;;0.46;78.07;100915.28;1729105;81;25814;-63
2021/03/19 03:02:47;;;;;;;43.20;19.87;;;;;;;0.44;78.07;100921.87;1712802;81;25920;-63
2021/03/19 03:05:17;;;;;;;40.23;17.25;;;;;;;0.44;78.09;100923.62;1720862;81;26046;-63
2021/03/19 03:07:45;;;;;;;47.05;19.23;;;;;;;0.45;78.04;100928.03;1717881;81;28505;-63
2021/03/19 03:10:17;;;;;;;44.65;19.25;;;;;;;0.45;78.13;100927.59;1714819;82;25990;-63
2021/03/19 03:12:45;;;;;;;41.05;18.00;;;;;;;0.46;78.12;100924.52;1723181;81;25919;-64
2021/03/19 03:15:17;;;;;;;43.08;18.73;;;;;;;0.47;78.14;100928.91;1726744;81;25845;-64
2021/03/19 03:17:47;;;;;;;42.80;20.48;;;;;;;0.49;78.08;100930.67;1731178;81;25884;-64
2021/03/19 03:20:37;;;;;;;48.78;20.23;;;;;;;0.49;78.09;100930.67;1710913;81;27286;-63
2021/03/19 03:23:07;;;;;;;48.15;20.43;;;;;;;0.52;78.17;100921.89;1707831;82;25940;-63
2021/03/19 03:25:36;;;;;;;43.70;18.75;;;;;;;0.51;78.12;100923.64;1704831;82;26147;-64
2021/03/19 03:28:06;;;;;;;45.60;19.32;;;;;;;0.51;78.03;100921.45;1735084;79;26050;-63
2021/03/19 03:30:39;;;;;;;43.38;19.85;;;;;;;0.50;78.13;100926.28;1735972;80;25793;-64
2021/03/19 03:33:07;;;;;;;41.55;18.57;;;;;;;0.52;78.16;100929.36;1715302;81;28502;-64
2021/03/19 03:35:36;;;;;;;43.92;19.42;;;;;;;0.50;78.05;100934.19;1740438;80;25814;-64
2021/03/19 03:38:09;;;;;;;40.30;17.73;;;;;;;0.48;78.08;100938.58;1705835;82;25922;-64
2021/03/19 03:41:03;;;;;;;45.95;20.12;;;;;;;0.44;78.01;100941.65;1739490;80;25834;-64
2021/03/19 03:43:33;;;;;;;46.75;21.05;;;;;;;0.40;78.01;100939.00;1715116;81;25986;-64
2021/03/19 03:46:05;;;;;;;39.80;19.00;;;;;;;0.36;78.06;100941.19;1697882;82;27768;-64
2021/03/19 03:48:34;;;;;;;;;;;;;;;0.35;78.07;100939.42;1692863;81;26443;-64
2021/03/19 03:51:06;;;;;;;39.25;18.73;;;;;;;0.29;77.98;100945.56;1696017;83;26102;-64
2021/03/19 03:53:35;;;;;;;46.70;20.37;;;;;;;0.21;78.01;100944.22;1699672;81;25813;-64
2021/03/19 03:56:06;;;;;;;47.27;20.57;;;;;;;0.17;77.99;100941.56;1731831;80;25939;-64
2021/03/19 03:58:34;;;;;;;40.55;18.40;;;;;;;0.09;77.94;100944.17;1739666;80;28195;-64
2021/03/19 04:01:03;;;;;;;42.75;17.57;;;;;;;0.02;77.95;100939.75;1700358;82;26440;-64
2021/03/19 04:03:32;;;;;;;47.90;21.35;;;;;;;-0.03;77.97;100948.11;1703495;81;25967;-64
2021/03/19 04:06:01;;;;;;;51.00;19.65;;;;;;;-0.12;77.99;100948.06;1702109;81;25802;-63
2021/03/19 04:08:30;;;;;;;44.18;20.45;;;;;;;-0.15;78.09;100942.34;1709565;82;25801;-64
2021/03/19 04:11:02;;;;;;;48.35;19.50;;;;;;;-0.15;78.11;100948.05;1734719;80;27736;-63
2021/03/19 04:13:32;;;;;;;40.52;19.27;;;;;;;-0.17;78.14;100954.63;1728107;80;26144;-64
2021/03/19 04:16:00;;;;;;;40.38;18.25;;;;;;;-0.18;78.10;100955.50;1743834;81;25813;-64
2021/03/19 04:18:29;;;;;;;43.10;19.45;;;;;;;-0.19;78.08;100952.86;1741253;79;25806;-63
2021/03/19 04:21:00;;;;;;;45.48;19.42;;;;;;;-0.23;78.10;100951.08;1752062;79;26599;-64
2021/03/19 04:23:31;;;;;;;40.65;17.57;;;;;;;-0.26;78.15;100955.02;1768878;79;27493;-64
2021/03/19 04:25:59;;;;;;;46.80;18.67;;;;;;;-0.27;78.08;100962.47;1760045;79;25865;-64
2021/03/19 04:28:37;;;;;;;40.80;19.30;;;;;;;-0.31;78.07;100967.27;1765115;79;25931;-64
2021/03/19 04:31:06;;;;;;;45.48;19.90;;;;;;;-0.37;78.04;100976.90;1774182;79;26582;-65
2021/03/19 04:33:35;;;;;;;37.70;18.30;;;;;;;-0.41;78.13;100981.70;1760008;78;26393;-64
2021/03/19 04:36:42;;;;;;;40.67;17.57;;;;;;;-0.42;78.11;100983.89;1758459;79;27639;-64
2021/03/19 04:39:13;;;;;;;45.67;17.87;;;;;;;-0.45;78.08;100973.34;1755827;80;26192;-64
2021/03/19 04:41:49;;;;;;;36.70;18.02;;;;;;;-0.46;78.24;100968.06;1763642;78;25847;-64
2021/03/19 04:44:20;;;;;;;32.98;16.48;;;;;;;-0.44;78.23;100961.94;1756456;80;26555;-64
2021/03/19 04:46:49;;;;;;;32.70;16.27;;;;;;;-0.42;78.26;100962.83;1764659;79;25868;-64
2021/03/19 04:49:19;;;;;;;37.35;17.20;;;;;;;-0.40;78.26;100964.15;1761107;79;27408;-64
2021/03/19 04:51:48;;;;;;;36.30;16.48;;;;;;;-0.39;78.30;100965.91;1758360;78;25793;-64
2021/03/19 04:54:16;;;;;;;36.63;16.25;;;;;;;-0.39;78.34;100964.16;1765000;80;25894;-64
2021/03/19 04:56:44;;;;;;;35.80;17.20;;;;;;;-0.38;78.39;100960.66;1748832;80;26396;-64
2021/03/19 04:59:12;;;;;;;40.20;17.10;;;;;;;-0.34;78.36;100965.07;1762492;80;25828;-64
2021/03/19 05:01:53;;;;;;;35.63;17.15;;;;;;;-0.35;78.35;100964.62;1776923;78;28371;-64
2021/03/19 05:04:22;;;;;;;35.98;18.25;;;;;;;-0.35;78.32;100958.47;1757558;79;25930;-64
2021/03/19 05:06:54;;;;;;;39.95;17.20;;;;;;;-0.42;78.26;100961.50;1768010;78;25874;-64
2021/03/19 05:09:21;;;;;;;37.38;17.17;;;;;;;-0.42;78.32;100964.58;1758130;79;25903;-64
2021/03/19 05:11:49;;;;;;;39.88;17.52;;;;;;;-0.44;78.35;100968.95;1772788;78;25837;-64
2021/03/19 05:14:19;;;;;;;32.55;16.87;;;;;;;-0.46;78.32;100971.58;1763113;79;27780;-64
2021/03/19 05:16:46;;;;;;;33.45;16.32;;;;;;;-0.49;78.35;100974.19;1756694;79;26513;-64
2021/03/19 05:19:15;;;;;;;35.45;17.82;;;;;;;-0.48;78.41;100974.63;1763407;79;25781;-63
2021/03/19 05:21:43;;;;;;;35.33;17.30;;;;;;;-0.48;78.38;100977.70;1756050;78;25872;-64
2021/03/19 05:24:12;;;;;;;43.35;19.73;;;;;;;-0.52;78.25;100982.06;1749500;79;25951;-63
2021/03/19 05:26:42;;;;;;;35.58;15.30;;;;;;;-0.64;78.30;100972.77;1763659;78;27320;-64
2021/03/19 05:29:11;;;;;;;42.08;19.57;;;;;;;-0.61;78.19;100979.36;1732620;80;26641;-64
2021/03/19 05:31:41;;;;;;;36.83;19.00;;;;;;;-0.76;78.26;100972.67;1715845;81;25851;-63
2021/03/19 05:34:11;;;;;;;40.80;20.40;;;;;;;-0.75;78.22;100993.73;1758362;79;26041;-64
2021/03/19 05:36:40;;;;;;;48.83;23.22;;;;;;;-0.77;78.30;100993.28;1745715;78;25939;-64
2021/03/19 05:39:11;;;;;;;48.80;22.13;;;;;;;-0.76;78.43;100991.09;1765715;79;27834;-64
2021/03/19 05:41:42;;;;;;;45.70;20.55;;;;;;;-0.72;78.45;100986.30;1763556;78;26636;-64
2021/03/19 05:44:23;;;;;;;48.10;21.93;;;;;;;-0.68;78.51;100984.14;1750316;79;25883;-64
2021/03/19 05:46:55;;;;;;;55.50;23.32;;;;;;;-0.68;78.39;100983.70;1746708;78;34350;-64
2021/03/19 05:49:27;;;;;;;54.00;23.83;;;;;;;-0.68;78.42;100986.34;1727111;81;26528;-64
2021/03/19 05:52:03;;;;;;;41.45;22.67;;;;;;;-0.64;78.52;100992.94;1735065;79;26117;-64
2021/03/19 05:54:44;;;;;;;42.43;22.20;;;;;;;-0.59;78.56;100991.22;1744981;78;26401;-65
2021/03/19 05:57:23;;;;;;;51.28;25.30;;;;;;;-0.58;78.43;100993.87;1749148;79;26210;-64
2021/03/19 05:59:54;;;;;;;51.85;25.55;;;;;;;-0.61;78.48;100991.21;1769385;79;25855;-64
2021/03/19 06:02:38;;;;;;;49.08;22.67;;;;;;;-0.60;78.60;100989.02;1748347;79;25614;-64
2021/03/19 06:05:23;;;;;;;44.98;21.52;;;;;;;-0.56;78.53;100993.88;1755130;78;27250;-65
2021/03/19 06:07:57;;;;;;;55.15;24.77;;;;;;;-0.56;78.58;100992.56;1745478;78;25937;-65
2021/03/19 06:10:35;;;;;;;51.63;22.35;;;;;;;-0.54;78.59;100994.77;1754751;78;25915;-65
2021/03/19 06:13:26;;;;;;;50.65;20.70;;;;;;;-0.52;78.64;100993.03;1753061;78;25877;-65
2021/03/19 06:16:17;;;;;;;40.73;19.30;;;;;;;-0.48;78.68;100997.02;1746908;79;25834;-64
2021/03/19 06:18:48;;;;;;;42.43;20.82;;;;;;;-0.46;78.58;100999.66;1748757;78;28550;-65
2021/03/19 06:21:27;;;;;;;45.45;20.23;;;;;;;-0.51;78.64;100989.09;1753191;79;26010;-64
2021/03/19 06:24:18;;;;;;;40.55;18.95;;;;;;;-0.47;78.69;100993.51;1748920;79;25792;-64
2021/03/19 06:26:47;;;;;;;40.12;19.55;;;;;;;-0.49;78.71;100988.67;1738930;79;25982;-64
2021/03/19 06:29:33;;;;;;;49.75;22.62;;;;;;;-0.49;78.65;100993.94;1752764;79;26221;-64
2021/03/19 06:32:13;;;;;;;44.85;21.52;;;;;;;-0.50;78.72;100997.44;1769871;79;26421;-64
2021/03/19 06:35:07;;;;;;;43.83;19.27;;;;;;;-0.46;78.77;100999.22;1764200;78;25848;-64
2021/03/19 06:37:46;;;;;;;44.58;19.85;;;;;;;-0.44;78.76;101005.38;1746625;79;26203;-64
2021/03/19 06:40:34;;;;;;;49.45;20.05;;;;;;;-0.40;78.75;101003.22;1755950;79;25692;-63
2021/03/19 06:43:24;;;;;;;48.45;19.87;;;;;;;-0.38;78.74;101005.42;1759787;79;26154;-63
2021/03/19 06:46:14;;;;;;;50.80;20.05;;;;;;;-0.32;78.78;101006.34;1754745;79;27215;-63
2021/03/19 06:48:56;;;;;;;51.95;21.35;;;;;;;-0.26;78.77;101006.37;1750375;78;25794;-64
2021/03/19 06:51:39;;;;;;;47.78;20.75;;;;;;;-0.17;78.80;101012.58;1748950;80;26218;-63
2021/03/19 06:54:11;;;;;;;59.93;21.33;;;;;;;-0.06;78.77;101015.28;1744882;79;25828;-63
2021/03/19 06:56:44;;;;;;;56.13;20.62;;;;;;;0.02;78.76;101012.66;1716161;80;26530;-63
2021/03/19 06:59:24;;;;;;;52.65;21.37;;;;;;;0.10;78.73;101018.84;1705585;79;28537;-64
2021/03/19 07:01:53;;;;;;;63.08;20.82;;;;;;;0.17;78.70;101020.20;1718736;80;25938;-64
2021/03/19 07:04:35;;;;;;;57.30;21.10;;;;;;;0.25;78.69;101024.19;1721625;79;26002;-64
2021/03/19 07:07:32;;;;;;;51.10;21.30;;;;;;;0.31;78.63;101027.73;1719852;81;26520;-64
2021/03/19 07:10:31;;;;;;;48.48;21.77;;;;;;;0.35;78.54;101023.36;1749173;79;25888;-64
2021/03/19 07:13:16;;;;;;;42.38;19.55;;;;;;;0.42;78.52;101024.27;1753018;79;27499;-64
2021/03/19 07:16:07;;;;;;;49.35;21.27;;;;;;;0.51;78.49;101025.19;1764999;79;26131;-66
2021/03/19 07:18:46;;;;;;;44.42;19.10;;;;;;;0.61;78.50;101017.74;1763359;79;25883;-65
2021/03/19 07:21:42;;;;;;;41.73;18.30;;;;;;;0.62;78.28;101017.30;1747519;80;25865;-65
2021/03/19 07:24:39;;;;;;;57.05;19.67;;;;;;;0.67;78.31;101018.64;1760888;79;26569;-65
2021/03/19 07:27:36;;;;;;;40.43;18.32;;;;;;;0.72;78.23;101019.09;1742391;78;27908;-66
2021/03/19 07:30:42;;;;;;;48.58;19.30;;;;;;;0.76;78.16;101019.55;1754271;80;25858;-65
2021/03/19 07:33:43;;;;;;;46.58;19.10;;;;;;;0.78;77.99;101016.91;1731896;81;25837;-64
2021/03/19 07:36:37;;;;;;;48.17;21.97;;;;;;;0.74;77.76;101016.02;1687174;83;25880;-65
2021/03/19 07:39:19;;;;;;;50.80;20.62;;;;;;;0.77;77.85;101019.98;1681816;83;26016;-65
2021/03/19 07:42:13;;;;;;;51.00;22.87;;;;;;;0.83;77.76;101017.80;1706094;81;27024;-64
2021/03/19 07:45:22;;;;;;;42.53;18.67;;;;;;;0.85;77.69;101014.73;1710492;82;26309;-63
2021/03/19 07:48:21;;;;;;;46.10;19.45;;;;;;;0.89;77.69;101013.41;1677177;82;26339;-72
2021/03/19 07:51:15;;;;;;;42.62;19.55;;;;;;;0.90;77.58;101013.86;1684585;82;25978;-65
2021/03/19 07:53:54;;;;;;;51.42;20.02;;;;;;;0.91;77.51;101018.26;1682279;82;25896;-64
2021/03/19 07:57:02;;;;;;;40.28;17.57;;;;;;;0.95;77.45;101025.30;1721117;81;27724;-65
2021/03/19 07:59:55;;;;;;;44.25;17.98;;;;;;;1.00;77.42;101023.98;1699144;82;26269;-64
2021/03/19 08:02:35;;;;;;;36.35;15.68;;;;;;;0.96;77.09;101032.34;1733909;81;26069;-63
2021/03/19 08:05:09;;;;;;;40.00;17.67;;;;;;;1.03;77.14;101035.88;1714978;82;26162;-65
2021/03/19 08:07:54;;;;;;;43.55;18.82;;;;;;;1.09;77.10;101030.61;1708897;81;25977;-65
2021/03/19 08:10:47;;;;;;;34.45;13.72;;;;;;;1.18;77.13;101033.25;1737381;80;27370;-65
2021/03/19 08:13:55;;;;;;;37.78;14.75;;;;;;;1.33;77.08;101037.67;1718501;82;26358;-65
2021/03/19 08:16:40;;;;;;;28.32;14.20;;;;;;;1.40;76.81;101038.55;1682564;82;26008;-64
2021/03/19 08:19:31;;;;;;;31.77;15.00;;;;;;;1.44;76.33;101042.52;1705355;81;25883;-64
2021/03/19 08:22:30;;;;;;;27.50;12.78;;;;;;;1.51;76.41;101045.59;1704427;82;32362;-65
2021/03/19 08:25:23;;;;;;;31.68;12.45;;;;;;;1.64;76.32;101042.52;1710441;81;27431;-65
2021/03/19 08:27:58;;;;;;;36.48;13.68;;;;;;;1.74;76.39;101030.17;1685854;83;26397;-65
2021/03/19 08:30:36;;;;;;;29.35;12.18;;;;;;;1.74;75.85;101037.66;1703582;82;26065;-65
2021/03/19 08:33:48;;;;;;;30.25;13.80;;;;;;;1.78;75.85;101030.61;1690908;82;26474;-65
2021/03/19 08:36:50;;;;;;;21.55;9.73;;;;;;;1.83;75.73;101027.52;1628176;86;25955;-70
2021/03/19 08:39:37;;;;;;;25.45;8.98;;;;;;;1.81;75.43;101027.95;1624756;86;28271;-70
2021/03/19 08:42:19;;;;;;;35.10;12.10;;;;;;;1.74;74.77;101031.48;1704846;81;26105;-70
2021/03/19 08:44:49;;;;;;;23.27;7.62;;;;;;;1.81;75.01;101027.95;1688840;82;25858;-69
2021/03/19 08:47:38;;;;;;;13.60;6.12;;;;;;;1.95;74.64;101033.66;1717334;81;25915;-69
2021/03/19 08:50:41;;;;;;;11.40;6.33;;;;;;;1.99;74.51;101037.62;1748056;80;26123;-69
2021/03/19 08:53:19;;;;;;;15.18;7.30;;;;;;;2.06;74.17;101033.63;1719545;81;25972;-70
2021/03/19 08:55:51;;;;;;;18.90;7.97;;;;;;;2.08;74.11;101034.51;1717056;81;25845;-67
2021/03/19 08:58:34;;;;;;;14.53;7.47;;;;;;;2.14;73.79;101038.45;1714580;81;25899;-70
2021/03/19 09:01:06;;;;;;;18.02;8.03;;;;;;;2.21;73.84;101043.29;1715254;81;25803;-69
2021/03/19 09:03:48;;;;;;;17.05;7.17;;;;;;;2.25;74.12;101038.42;1719053;81;25816;-69
2021/03/19 09:06:27;;;;;;;13.50;7.22;;;;;;;2.32;73.99;101039.29;1712079;81;27520;-70
2021/03/19 09:09:36;;;;;;;17.40;7.92;;;;;;;2.25;73.87;101038.42;1709052;81;27956;-68
2021/03/19 09:12:08;;;;;;;16.00;7.20;;;;;;;2.28;74.01;101041.94;1709546;81;25958;-68
2021/03/19 09:14:44;;;;;;;15.78;6.55;;;;;;;2.26;73.95;101038.87;1713870;81;26470;-69
2021/03/19 09:17:48;;;;;;;13.28;6.42;;;;;;;2.23;73.85;101044.16;1721872;81;25823;-69
2021/03/19 09:20:33;;;;;;;14.68;6.62;;;;;;;2.04;73.43;101048.62;1696918;81;26003;-69
2021/03/19 09:23:12;;;;;;;24.00;7.90;;;;;;;1.89;73.77;101049.97;1720810;81;25888;-70
2021/03/19 09:25:51;;;;;;;28.38;9.40;;;;;;;1.88;74.11;101049.09;1711374;81;26014;-68
2021/03/19 09:28:39;;;;;;;54.20;11.38;;;;;;;2.08;74.37;101053.02;1710231;81;25860;-68
2021/03/19 09:31:28;;;;;;;32.88;8.65;;;;;;;2.17;74.25;101053.00;1715915;81;26013;-68
2021/03/19 09:34:05;;;;;;;11.93;4.87;;;;;;;2.08;74.15;101061.39;1715389;81;26004;-69
2021/03/19 09:37:04;;;;;;;15.43;4.53;;;;;;;1.94;74.30;101066.70;1712579;81;25965;-70
2021/03/19 09:39:53;;;;;;;7.50;2.17;;;;;;;1.80;74.47;101065.84;1746058;80;26584;-69
2021/03/19 09:42:28;;;;;;;5.55;1.67;;;;;;;1.69;74.63;101068.93;1717733;81;26398;-66
2021/03/19 09:45:04;;;;;;;8.90;2.27;;;;;;;1.62;74.63;101073.34;1737102;80;25888;-65
2021/03/19 09:47:50;;;;;;;7.87;2.00;;;;;;;1.47;74.80;101072.89;1716539;81;28080;-67
2021/03/19 09:50:32;;;;;;;8.45;2.92;;;;;;;1.37;74.89;101068.48;1717843;81;26028;-66
2021/03/19 09:53:07;;;;;;;9.98;2.95;;;;;;;1.18;74.94;101072.86;1738492;80;26158;-66
2021/03/19 09:55:40;;;;;;;8.95;3.30;;;;;;;1.04;75.25;101068.43;1719388;81;26302;-66
2021/03/19 09:58:33;;;;;;;10.05;2.77;;;;;;;1.06;75.44;101071.52;1713516;81;25846;-67
2021/03/19 10:01:26;;;;;;;8.03;3.52;;;;;;;1.04;75.56;101063.16;1710581;81;27962;-67
2021/03/19 10:03:59;;;;;;;8.58;4.05;;;;;;;1.00;75.92;101066.22;1727531;81;25917;-67
2021/03/19 10:06:36;;;;;;;12.20;4.72;;;;;;;1.06;75.94;101069.31;1707015;81;26037;-67
2021/03/19 10:09:23;;;;;;;8.80;3.92;;;;;;;1.07;76.01;101061.84;1713935;81;26597;-66
2021/03/19 10:12:23;;;;;;;9.98;4.33;;;;;;;1.14;76.22;101071.53;1715539;81;25945;-68
2021/03/19 10:14:55;;;;;;;11.57;4.78;;;;;;;1.19;76.24;101070.66;1729787;80;26821;-69
2021/03/19 10:17:33;;;;;;;10.32;5.47;;;;;;;1.30;76.39;101068.03;1717091;81;25986;-68
2021/03/19 10:20:15;;;;;;;15.25;5.83;;;;;;;1.38;76.34;101071.56;1718950;81;25743;-67
2021/03/19 10:22:53;;;;;;;11.08;5.42;;;;;;;1.55;76.57;101071.13;1709874;81;25719;-66
2021/03/19 10:25:32;;;;;;;12.80;5.92;;;;;;;1.61;76.32;101067.61;1711194;81;25671;-66
2021/03/19 10:28:09;;;;;;;15.60;5.80;;;;;;;1.70;76.52;101070.25;1722521;81;27878;-67
2021/03/19 10:30:56;;;;;;;12.30;6.12;;;;;;;1.75;76.43;101076.86;1707598;81;25997;-67
2021/03/19 10:33:51;;;;;;;12.00;6.55;;;;;;;1.83;76.43;101070.69;1723239;80;25785;-67
2021/03/19 10:36:42;;;;;;;11.80;6.12;;;;;;;2.05;76.63;101060.95;1715303;81;26296;-67
2021/03/19 10:39:33;;;;;;;12.03;5.67;;;;;;;2.33;76.71;101070.14;1718847;81;25910;-66
2021/03/19 10:42:39;;;;;;;23.07;7.30;;;;;;;2.43;76.47;101067.91;1731155;81;27952;-66
2021/03/19 10:45:34;;;;;;;13.72;6.25;;;;;;;2.62;76.64;101062.95;1728070;79;26654;-66
2021/03/19 10:48:35;;;;;;;10.13;5.22;;;;;;;2.87;76.64;101057.98;1712319;81;26222;-70
2021/03/19 10:51:20;;;;;;;17.25;6.35;;;;;;;3.06;76.60;101059.19;1724750;81;26450;-68
2021/03/19 10:53:59;;;;;;;14.03;5.50;;;;;;;3.07;76.28;101054.33;1674244;82;25917;-70
2021/03/19 10:56:28;;;;;;;29.05;5.30;;;;;;;3.02;76.21;101053.48;1733809;80;27819;-66
2021/03/19 10:59:14;;;;;;;13.53;4.67;;;;;;;2.82;76.00;101060.20;1742452;80;26008;-68
2021/03/19 11:01:50;;;;;;;17.50;5.87;;;;;;;2.71;76.08;101059.38;1725310;81;25849;-66
2021/03/19 11:04:34;;;;;;;13.30;5.00;;;;;;;2.61;76.01;101053.25;1726788;80;26479;-68
2021/03/19 11:07:25;;;;;;;32.78;6.30;;;;;;;2.54;75.87;101061.69;1725270;79;25818;-68
2021/03/19 11:10:38;;;;;;;21.50;6.00;;;;;;;2.42;75.79;101061.73;1728580;81;27933;-67
2021/03/19 11:13:14;;;;;;;7.42;3.60;;;;;;;2.36;75.81;101072.78;1725155;79;26350;-67
2021/03/19 11:15:47;;;;;;;5.50;3.40;;;;;;;2.06;75.50;101068.45;1727231;81;26542;-67
2021/03/19 11:18:26;;;;;;;9.28;3.92;;;;;;;1.92;75.54;101070.67;1721899;81;25952;-66
2021/03/19 11:21:11;;;;;;;7.37;3.25;;;;;;;1.76;75.39;101065.41;1754329;79;25949;-64
2021/03/19 11:23:45;;;;;;;7.00;3.10;;;;;;;1.61;75.57;101071.58;1722183;79;27690;-64
2021/03/19 11:26:33;;;;;;;5.40;2.95;;;;;;;1.57;75.69;101073.34;1728080;81;25885;-63
2021/03/19 11:29:21;;;;;;;6.97;3.65;;;;;;;1.65;75.80;101074.66;1732708;81;25899;-64
2021/03/19 11:32:07;;;;;;;8.15;3.70;;;;;;;1.71;75.94;101073.33;1719122;81;26667;-63
2021/03/19 11:34:42;;;;;;;8.63;3.22;;;;;;;1.86;75.94;101077.73;1751368;79;26239;-64
2021/03/19 11:37:23;;;;;;;6.47;2.67;;;;;;;1.81;75.95;101076.85;1727740;80;28063;-65
2021/03/19 11:40:19;;;;;;;9.98;3.15;;;;;;;1.60;75.74;101085.22;1722949;80;33412;-64
2021/03/19 11:42:59;;;;;;;6.17;2.95;;;;;;;1.30;75.82;101098.41;1701473;81;25825;-64
2021/03/19 11:45:39;;;;;;;5.60;3.00;;;;;;;1.02;76.03;101101.42;1700759;82;25751;-64
2021/03/19 11:48:18;;;;;;;10.85;3.33;;;;;;;0.91;76.36;101102.70;1662978;83;25810;-65
2021/03/19 11:50:57;;;;;;;10.30;3.80;;;;;;;0.75;76.30;101099.57;1669654;84;27704;-65
2021/03/19 11:53:27;;;;;;;10.20;4.03;;;;;;;0.61;76.33;101110.50;1730009;81;25811;-65
2021/03/19 11:55:57;;;;;;;6.40;3.52;;;;;;;0.61;76.52;101111.38;1743138;79;25964;-64
2021/03/19 11:58:30;;;;;;;9.50;3.95;;;;;;;0.58;76.56;101114.01;1724957;81;25911;-65
2021/03/19 12:01:00;;;;;;;8.50;4.15;;;;;;;0.58;76.74;101110.05;1746709;80;25936;-66
2021/03/19 12:03:47;;;;;;;12.93;3.95;;;;;;;0.71;76.91;101120.22;1728101;79;28537;-67
2021/03/19 12:06:19;;;;;;;12.85;4.62;;;;;;;0.87;76.87;101115.89;1725612;79;26013;-65
2021/03/19 12:08:47;;;;;;;15.28;4.53;;;;;;;1.07;76.98;101115.95;1724617;80;26012;-67
2021/03/19 12:11:26;;;;;;;14.98;5.45;;;;;;;1.37;76.97;101115.14;1722994;81;26044;-67
2021/03/19 12:13:56;;;;;;;8.50;4.03;;;;;;;1.52;76.87;101112.08;1701533;82;25966;-67
2021/03/19 12:16:25;;;;;;;18.57;5.12;;;;;;;1.76;76.78;101110.33;1717238;81;27973;-66
2021/03/19 12:18:53;;;;;;;11.93;5.30;;;;;;;1.73;76.54;101119.58;1728116;81;26690;-66